Massillon, Iowa
Current Conditions -  °F | °C
As of 11:52 AM on Thursday 30 Oct 2014 (Local Time) from KDVN Reporting Station
Broken Clouds Broken Clouds  
Wind Chill: 44°   Ceiling: 8000
Heat Index: 48°   Visibility: 10mi
Dew Point: 35°   Wind: 8mph
Humidity: 61%   Direction: 160°SSE
Pressure: 30.1"   Gusts: NA
Location:  41.8589°N, 90.9568°W
Report Text: KDVN 301652Z AUTO 16007KT 10SM BKN080 09/02 A3010 RMK AO2 SLP197 T00890017 TSNO
Loading
Personal Weather Stations






























Interactive Weather Map
Tropical Storm Tracking
New forecast layout! Learn more

10-Day Weather Forecast

Advertisements
Track Severe Weather on mobile